Estación Meteorológica Peña el Pijo (Robertgarden) [ 09/23/17 05:50:38 CEST ]

Fecha Hora Presion(HPa) Temp (°C) Humedad % Rocio (°C) Viento ( m/s) Direccion Lluvia 1Hora(mm) Lluvia 24H(mm) LLuvia Total(mm)
2017-Jul-27 01:01:32 1012.000 18.0 53 8.2         1437.96
2017-Jul-27 02:01:33 1012.000 17.6 54 8.1         1437.96
2017-Jul-27 03:01:17 1011.900 16.5 56 7.7         1437.96
2017-Jul-27 04:01:19 1011.500 15.9 60 8.2         1437.96
2017-Jul-27 05:01:18 1011.400 15.4 60 7.7         1437.96
2017-Jul-27 06:01:24 1011.400 14.8 62 7.6         1437.96
2017-Jul-27 07:01:49 1011.500 13.8 65 7.3         1437.96
2017-Jul-27 08:01:58 1011.800 15.6 65 9.0         1437.96
2017-Jul-27 09:01:39 1012.000 20.2 54 10.6         1437.96
2017-Jul-27 10:01:50 1012.000 25.9 45 13.0         1437.96
2017-Jul-27 11:01:45 1011.700 32.6 34 14.6         1437.96
2017-Jul-27 12:01:59 1011.400 37.1 23 12.3         1437.96
2017-Jul-27 13:01:38 1011.100 37.1 23 12.3         1437.96
2017-Jul-27 14:01:46 1010.600 38.2 22 12.6         1437.96
2017-Jul-27 15:01:49 1010.100 37.8 22 12.3         1437.96
2017-Jul-27 16:01:43 1010.000 36.4 26 13.6         1437.96
2017-Jul-27 17:01:49 1009.800 36.6 26 13.8         1437.96
2017-Jul-27 18:01:58 1009.700 35.8 27 13.7         1437.96
2017-Jul-27 19:01:50 1009.400 33.9 28 12.7         1437.96
2017-Jul-27 20:01:43 1009.600 32.7 29 12.3         1437.96
2017-Jul-27 21:01:43 1010.100 28.9 34 11.4         1437.96
2017-Jul-27 22:01:32 1010.800 26.2 39 11.1         1437.96
2017-Jul-27 23:01:46 1011.600 22.3 49 11.0         1437.96

Temperatura Máxima:38°    Temperatura Mínima:13°
Presión Máxima:1012.000 Hpa    Presión Mínima:1009.400 Hpa


Volver